Aviation Digital Data Service (ADDS)

Output produced by TAFs form (1129 UTC 19 January 2018)
found at http://www.aviationweather.gov/adds/tafs/
 
RJAA 191100Z 07005KT 9999 FEW030 BKN070 06/00 Q1018 NOSIG RMK 1CU030 5AC070 A3009
TAF RJAA 191105Z 1912/2018 08005KT 9999 FEW030 
     BECMG 1912/1914 03004KT